Time;durP1;ratioP1;P1;durP2;ratioP2;P2;SDS_P1;SDS_P2;PMS_P1;PMS_P2;Temp;Humidity;BMP_temperature;BMP_pressure;BME280_temperature;BME280_humidity;BME280_pressure;Samples;Min_cycle;Max_cycle;Signal;HPM_P1;HPM_P2
2021/11/18 00:02:10;;;;;;;9.18;2.75;;;15.30;86.10;;;;;;4158934;28;20049;-61
2021/11/18 00:04:33;;;;;;;9.52;2.75;;;15.30;86.50;;;;;;4158725;28;20128;-61
2021/11/18 00:06:55;;;;;;;6.85;2.15;;;15.20;86.70;;;;;;4144845;28;20503;-61
2021/11/18 00:09:20;;;;;;;13.57;3.03;;;15.30;87.00;;;;;;4158367;28;20152;-61
2021/11/18 00:11:42;;;;;;;12.88;2.75;;;15.20;86.80;;;;;;4159106;28;20049;-62
2021/11/18 00:14:05;;;;;;;10.52;2.70;;;15.30;86.70;;;;;;4156863;28;20535;-62
2021/11/18 00:16:27;;;;;;;9.20;2.42;;;15.20;87.00;;;;;;4159230;28;20129;-61
2021/11/18 00:18:50;;;;;;;9.63;2.50;;;15.20;87.10;;;;;;4159119;28;20049;-62
2021/11/18 00:21:16;;;;;;;6.50;2.80;;;15.20;87.00;;;;;;4157060;28;20493;-61
2021/11/18 00:23:40;;;;;;;10.23;3.08;;;15.20;87.50;;;;;;4142788;28;20058;-62
2021/11/18 00:26:05;;;;;;;11.23;2.20;;;15.20;88.50;;;;;;4142250;28;20444;-61
2021/11/18 00:28:27;;;;;;;7.93;2.25;;;15.20;87.30;;;;;;4142861;28;20092;-61
2021/11/18 00:30:49;;;;;;;9.27;2.72;;;15.20;87.30;;;;;;4143823;28;20050;-61
2021/11/18 00:33:11;;;;;;;8.10;2.08;;;15.20;87.20;;;;;;4142577;28;20069;-60
2021/11/18 00:35:36;;;;;;;11.73;3.42;;;15.10;87.10;;;;;;4154963;28;20076;-60
2021/11/18 00:38:01;;;;;;;11.70;2.58;;;15.10;87.10;;;;;;4143324;28;20148;-61
2021/11/18 00:40:25;;;;;;;14.10;2.50;;;15.20;87.20;;;;;;4142489;28;20049;-61
2021/11/18 00:42:47;;;;;;;15.20;2.92;;;15.10;87.30;;;;;;4142527;28;20049;-60
2021/11/18 00:45:13;;;;;;;14.15;3.22;;;15.10;87.40;;;;;;4141121;28;20049;-61
2021/11/18 00:47:36;;;;;;;7.82;2.38;;;15.10;87.30;;;;;;4171374;28;20515;-60
2021/11/18 00:49:58;;;;;;;8.35;2.25;;;15.10;87.40;;;;;;4175106;28;20048;-61
2021/11/18 00:52:25;;;;;;;10.85;2.88;;;15.10;87.40;;;;;;4173474;28;20140;-60
2021/11/18 00:54:48;;;;;;;11.10;2.53;;;15.10;87.40;;;;;;4174058;28;20389;-60
2021/11/18 00:57:10;;;;;;;8.57;2.42;;;15.10;87.30;;;;;;4173401;28;20041;-60
2021/11/18 00:59:33;;;;;;;16.52;3.58;;;15.10;86.70;;;;;;4172869;28;20072;-60
2021/11/18 01:01:55;;;;;;;8.98;2.63;;;15.10;88.40;;;;;;4173479;28;20045;-61
2021/11/18 01:04:20;;;;;;;13.55;2.45;;;15.20;88.80;;;;;;4186351;28;20056;-59
2021/11/18 01:06:44;;;;;;;15.23;2.83;;;15.30;88.50;;;;;;4172924;28;20040;-60
2021/11/18 01:09:10;;;;;;;16.88;2.58;;;15.30;89.10;;;;;;4174703;28;20053;-60
2021/11/18 01:11:33;;;;;;;12.75;2.78;;;15.40;88.00;;;;;;4174121;28;20533;-61
2021/11/18 01:13:56;;;;;;;9.93;2.53;;;15.50;87.80;;;;;;4174820;28;20055;-60
2021/11/18 01:16:23;;;;;;;15.70;2.88;;;15.50;87.50;;;;;;4173379;28;20072;-59
2021/11/18 01:18:45;;;;;;;11.55;2.75;;;15.60;87.40;;;;;;4187119;28;20507;-61
2021/11/18 01:21:09;;;;;;;10.27;2.97;;;15.60;87.30;;;;;;4193944;28;20060;-60
2021/11/18 01:23:35;;;;;;;6.57;2.03;;;15.60;87.30;;;;;;4176695;28;20033;-61
2021/11/18 01:25:59;;;;;;;10.77;2.80;;;15.60;87.30;;;;;;4194785;28;20045;-60
2021/11/18 01:28:21;;;;;;;13.32;2.85;;;15.60;87.30;;;;;;4192902;28;20454;-59
2021/11/18 01:30:45;;;;;;;12.00;2.40;;;15.60;87.40;;;;;;4192449;28;20062;-60
2021/11/18 01:33:13;;;;;;;9.50;2.88;;;15.50;87.20;;;;;;4192651;28;20040;-60
2021/11/18 01:35:37;;;;;;;10.88;2.83;;;15.50;87.20;;;;;;4192385;28;20056;-60
2021/11/18 01:37:59;;;;;;;14.75;3.15;;;15.50;88.20;;;;;;4194161;28;20485;-60
2021/11/18 01:40:25;;;;;;;12.15;3.13;;;15.50;87.20;;;;;;4192887;28;20045;-60
2021/11/18 01:42:53;;;;;;;9.80;2.67;;;15.50;87.30;;;;;;4191881;28;20055;-59
2021/11/18 01:45:17;;;;;;;9.65;2.53;;;15.50;87.20;;;;;;4192606;28;20048;-62
2021/11/18 01:47:39;;;;;;;11.77;2.30;;;15.50;88.00;;;;;;4192524;28;20053;-63
2021/11/18 01:50:01;;;;;;;16.25;3.45;;;15.40;87.20;;;;;;4192460;28;20515;-62
2021/11/18 01:52:29;;;;;;;15.50;3.28;;;15.40;87.20;;;;;;4184037;28;20057;-62
2021/11/18 01:54:52;;;;;;;13.50;2.65;;;15.40;87.40;;;;;;4177025;28;20060;-60
2021/11/18 01:57:17;;;;;;;14.95;3.50;;;15.40;87.90;;;;;;4180790;28;20044;-61
2021/11/18 01:59:52;;;;;;;11.45;2.97;;;15.40;88.20;;;;;;4186590;28;20540;-60
2021/11/18 02:02:28;;;;;;;10.35;2.85;;;15.50;88.10;;;;;;4192934;28;20502;-60
2021/11/18 02:05:17;;;;;;;13.98;2.75;;;15.60;87.60;;;;;;4193994;28;20044;-60
2021/11/18 02:07:42;;;;;;;9.82;2.42;;;15.60;87.40;;;;;;4189888;28;20514;-61
2021/11/18 02:10:08;;;;;;;11.52;3.05;;;15.70;87.30;;;;;;4176121;28;20061;-61
2021/11/18 02:12:31;;;;;;;11.75;2.85;;;15.70;87.00;;;;;;4175604;28;20052;-62
2021/11/18 02:14:55;;;;;;;7.55;3.10;;;15.70;86.80;;;;;;4160691;28;20047;-62
2021/11/18 02:17:18;;;;;;;12.32;2.78;;;15.70;86.70;;;;;;4158882;28;20152;-62
2021/11/18 02:19:42;;;;;;;13.35;2.95;;;15.70;86.70;;;;;;4159422;28;20132;-62
2021/11/18 02:22:07;;;;;;;13.07;2.97;;;15.70;86.60;;;;;;4175603;28;20049;-62
2021/11/18 02:24:33;;;;;;;15.05;3.55;;;15.70;86.50;;;;;;4175570;28;20037;-62
2021/11/18 02:26:57;;;;;;;22.20;3.80;;;15.70;86.70;;;;;;4159661;28;20120;-62
2021/11/18 02:29:21;;;;;;;13.27;2.70;;;15.60;86.90;;;;;;4159074;28;20057;-62
2021/11/18 02:31:48;;;;;;;14.68;3.83;;;15.60;87.00;;;;;;4158459;28;22089;-62
2021/11/18 02:34:17;;;;;;;14.75;3.28;;;15.70;87.20;;;;;;4174653;28;20048;-62
2021/11/18 02:36:40;;;;;;;15.88;3.55;;;15.70;86.80;;;;;;4171011;28;20491;-62
2021/11/18 02:39:05;;;;;;;12.23;3.10;;;15.80;86.80;;;;;;4193679;28;20041;-61
2021/11/18 02:41:27;;;;;;;14.70;3.00;;;15.80;86.50;;;;;;4191943;28;20098;-61
2021/11/18 02:43:50;;;;;;;18.45;3.58;;;15.80;86.40;;;;;;4193056;28;20056;-61
2021/11/18 02:46:14;;;;;;;14.75;3.60;;;15.80;86.30;;;;;;4191859;28;20048;-61
2021/11/18 02:48:35;;;;;;;13.73;3.63;;;15.80;86.40;;;;;;4193478;28;21106;-61
2021/11/18 02:51:02;;;;;;;12.75;3.42;;;15.80;86.60;;;;;;4191411;28;20057;-60
2021/11/18 02:53:25;;;;;;;18.40;4.00;;;15.80;86.50;;;;;;4188525;28;20432;-62
2021/11/18 02:55:51;;;;;;;13.32;2.80;;;15.80;86.50;;;;;;4175649;28;20064;-61
2021/11/18 02:58:13;;;;;;;14.68;3.42;;;15.80;86.50;;;;;;4189687;28;20149;-61
2021/11/18 03:00:42;;;;;;;15.95;3.25;;;15.80;86.50;;;;;;4175200;28;20063;-60
2021/11/18 03:03:04;;;;;;;15.77;3.65;;;15.80;86.60;;;;;;4175181;28;20040;-60
2021/11/18 03:05:28;;;;;;;12.85;3.25;;;15.80;86.60;;;;;;4175091;28;20045;-61
2021/11/18 03:07:50;;;;;;;11.82;4.03;;;15.80;86.70;;;;;;4182774;28;20444;-60
2021/11/18 03:10:12;;;;;;;14.88;2.90;;;15.80;86.70;;;;;;4174724;28;20041;-60
2021/11/18 03:12:36;;;;;;;16.20;3.63;;;15.80;86.70;;;;;;4174895;28;20099;-61
2021/11/18 03:14:58;;;;;;;18.52;3.92;;;15.80;86.60;;;;;;4176755;28;20048;-61
2021/11/18 03:17:20;;;;;;;16.27;3.03;;;15.80;87.50;;;;;;4184140;28;20225;-61
2021/11/18 03:20:23;;;;;;;19.42;3.40;;;15.80;86.80;;;;;;4177755;28;20046;-62
2021/11/18 03:22:47;;;;;;;13.80;3.42;;;15.80;87.20;;;;;;4190956;28;20064;-61
2021/11/18 03:25:11;;;;;;;19.42;3.42;;;15.90;87.10;;;;;;4190242;28;20037;-61
2021/11/18 03:27:35;;;;;;;16.35;4.03;;;15.90;86.80;;;;;;4175185;28;20051;-61
2021/11/18 03:29:57;;;;;;;17.27;3.35;;;15.90;86.60;;;;;;4174442;28;20488;-61
2021/11/18 03:32:22;;;;;;;18.70;3.75;;;15.90;86.50;;;;;;4175151;28;20585;-61
2021/11/18 03:34:44;;;;;;;10.75;3.55;;;15.90;86.40;;;;;;4174801;28;20041;-60
2021/11/18 03:37:06;;;;;;;15.48;3.65;;;16.00;86.50;;;;;;4176085;28;20049;-60
2021/11/18 03:39:30;;;;;;;13.73;3.75;;;16.00;86.40;;;;;;4174630;28;20055;-61
2021/11/18 03:41:59;;;;;;;18.85;3.63;;;16.00;86.30;;;;;;4174809;28;20223;-61
2021/11/18 03:44:25;;;;;;;12.23;3.58;;;15.90;86.30;;;;;;4173966;28;20049;-61
2021/11/18 03:46:50;;;;;;;11.95;3.25;;;15.90;86.20;;;;;;4174624;28;20087;-61
2021/11/18 03:49:14;;;;;;;14.30;3.20;;;16.00;86.50;;;;;;4173918;28;20068;-62
2021/11/18 03:51:43;;;;;;;15.73;3.53;;;15.90;86.60;;;;;;4174158;28;20071;-62
2021/11/18 03:54:08;;;;;;;19.35;3.83;;;16.00;86.60;;;;;;4175650;28;20381;-62
2021/11/18 03:56:38;;;;;;;16.58;3.88;;;15.90;86.40;;;;;;4174321;28;20052;-62
2021/11/18 03:59:04;;;;;;;14.55;4.00;;;16.00;86.50;;;;;;4189699;28;20048;-62
2021/11/18 04:01:27;;;;;;;15.57;4.32;;;15.90;86.30;;;;;;4176291;28;20530;-62
2021/11/18 04:03:54;;;;;;;16.83;3.35;;;16.00;86.40;;;;;;4173361;28;20061;-62
2021/11/18 04:06:17;;;;;;;24.63;5.10;;;15.90;86.40;;;;;;4173787;28;20647;-62
2021/11/18 04:08:50;;;;;;;15.15;4.40;;;16.00;86.30;;;;;;4174102;28;20057;-61
2021/11/18 04:11:12;;;;;;;12.63;3.67;;;16.10;86.00;;;;;;4173699;28;20399;-61
2021/11/18 04:13:34;;;;;;;13.23;3.85;;;16.10;85.60;;;;;;4176136;28;20053;-61
2021/11/18 04:16:01;;;;;;;18.80;4.53;;;16.20;85.50;;;;;;4185873;28;20136;-61
2021/11/18 04:18:28;;;;;;;26.73;4.93;;;16.10;85.40;;;;;;4190538;28;20056;-63
2021/11/18 04:20:52;;;;;;;18.38;4.22;;;16.10;86.50;;;;;;4190669;28;20051;-63
2021/11/18 04:23:14;;;;;;;16.15;3.90;;;16.10;85.60;;;;;;4190548;28;20119;-63
2021/11/18 04:25:38;;;;;;;14.77;4.20;;;16.10;85.70;;;;;;4190096;28;20613;-63
2021/11/18 04:28:01;;;;;;;14.95;3.72;;;16.10;85.80;;;;;;4190378;28;20237;-63
2021/11/18 04:30:26;;;;;;;18.27;4.70;;;16.00;85.90;;;;;;4189798;28;20106;-63
2021/11/18 04:33:08;;;;;;;16.30;4.13;;;16.00;86.00;;;;;;4174995;28;20061;-62
2021/11/18 04:35:32;;;;;;;15.93;3.95;;;16.00;86.20;;;;;;4175323;28;20045;-62
2021/11/18 04:37:54;;;;;;;12.85;3.72;;;15.90;86.10;;;;;;4188232;28;20130;-62
2021/11/18 04:40:18;;;;;;;13.68;3.88;;;15.90;86.50;;;;;;4174012;28;20099;-62
2021/11/18 04:42:42;;;;;;;16.30;4.53;;;15.80;86.50;;;;;;4173561;28;20059;-62
2021/11/18 04:45:15;;;;;;;21.83;4.45;;;15.90;86.80;;;;;;4173343;28;20072;-62
2021/11/18 04:47:38;;;;;;;16.90;3.72;;;15.90;86.90;;;;;;4185799;28;20048;-62
2021/11/18 04:50:00;;;;;;;13.77;3.30;;;15.90;86.80;;;;;;4189598;28;20048;-62
2021/11/18 04:52:24;;;;;;;16.77;4.10;;;15.90;86.70;;;;;;4189870;28;20053;-62
2021/11/18 04:54:47;;;;;;;15.90;3.55;;;15.90;86.70;;;;;;4189813;28;20044;-65
2021/11/18 04:57:09;;;;;;;20.48;4.13;;;15.90;86.60;;;;;;4190465;28;20040;-64
2021/11/18 04:59:36;;;;;;;15.43;4.25;;;15.90;86.90;;;;;;4189890;28;20575;-65
2021/11/18 05:01:59;;;;;;;18.10;4.63;;;15.90;86.90;;;;;;4191384;28;20052;-62
2021/11/18 05:04:27;;;;;;;15.88;4.25;;;15.90;86.70;;;;;;4186035;28;20415;-62
2021/11/18 05:06:50;;;;;;;20.15;3.72;;;16.00;86.40;;;;;;4172856;28;20670;-62
2021/11/18 05:09:14;;;;;;;14.40;3.50;;;16.00;86.00;;;;;;4175003;28;20151;-62
2021/11/18 05:11:38;;;;;;;16.90;3.75;;;16.10;86.00;;;;;;4173416;28;20041;-62
2021/11/18 05:14:01;;;;;;;13.80;3.38;;;16.10;86.00;;;;;;4173583;28;20053;-62
2021/11/18 05:16:24;;;;;;;17.10;4.43;;;16.10;86.00;;;;;;4173663;28;20079;-61
2021/11/18 05:18:47;;;;;;;17.13;3.63;;;16.10;86.10;;;;;;4188649;28;20052;-62
2021/11/18 05:21:13;;;;;;;16.88;3.60;;;16.10;86.00;;;;;;4173510;28;20069;-62
2021/11/18 05:23:38;;;;;;;19.05;4.57;;;16.00;85.90;;;;;;4170867;28;20060;-61
2021/11/18 05:26:04;;;;;;;18.35;3.67;;;16.10;86.10;;;;;;4173473;28;20069;-61
2021/11/18 05:28:27;;;;;;;20.00;4.53;;;16.00;86.00;;;;;;4162074;28;20099;-61
2021/11/18 05:30:50;;;;;;;16.70;3.50;;;16.00;86.10;;;;;;4156858;28;20120;-60
2021/11/18 05:33:14;;;;;;;16.05;3.92;;;16.00;86.10;;;;;;4171167;28;20048;-60
2021/11/18 05:35:37;;;;;;;13.68;3.67;;;16.00;86.20;;;;;;4162299;28;20057;-60
2021/11/18 05:38:00;;;;;;;21.33;4.30;;;16.00;86.20;;;;;;4174823;28;20051;-60
2021/11/18 05:40:24;;;;;;;13.88;3.67;;;15.90;86.20;;;;;;4174702;28;20130;-60
2021/11/18 05:42:48;;;;;;;17.08;4.85;;;15.90;86.30;;;;;;4187277;28;20048;-60
2021/11/18 05:45:13;;;;;;;15.20;3.97;;;15.90;86.30;;;;;;4173160;28;20040;-60
2021/11/18 05:47:45;;;;;;;15.52;4.28;;;15.90;86.40;;;;;;4172417;28;20049;-61
2021/11/18 05:50:12;;;;;;;20.77;4.35;;;15.90;86.90;;;;;;4172686;28;20189;-60
2021/11/18 05:52:34;;;;;;;16.73;4.68;;;16.00;86.80;;;;;;4174333;28;20045;-60
2021/11/18 05:54:57;;;;;;;15.50;4.00;;;16.10;87.10;;;;;;4173049;28;20053;-60
2021/11/18 05:57:22;;;;;;;21.63;4.72;;;16.20;85.70;;;;;;4183002;28;20545;-60
2021/11/18 05:59:46;;;;;;;19.88;4.35;;;16.30;85.30;;;;;;4203983;28;20051;-60
2021/11/18 06:02:08;;;;;;;13.02;4.30;;;16.30;85.70;;;;;;4189533;28;20408;-60
2021/11/18 06:04:31;;;;;;;13.20;3.47;;;16.30;84.90;;;;;;4172879;28;20485;-61
2021/11/18 06:07:01;;;;;;;18.95;4.28;;;16.30;84.90;;;;;;4174366;28;20437;-61
2021/11/18 06:09:23;;;;;;;13.60;4.53;;;16.30;84.90;;;;;;4175975;28;20052;-61
2021/11/18 06:11:46;;;;;;;18.88;4.32;;;16.30;84.70;;;;;;4175871;28;20036;-61
2021/11/18 06:14:12;;;;;;;15.32;3.55;;;16.30;84.70;;;;;;4176620;28;20059;-62
2021/11/18 06:16:37;;;;;;;20.52;4.68;;;16.20;84.80;;;;;;4188413;28;20045;-62
2021/11/18 06:19:01;;;;;;;15.25;3.97;;;16.20;84.90;;;;;;4175916;28;20059;-61
2021/11/18 06:21:26;;;;;;;14.93;4.15;;;16.20;85.10;;;;;;4175261;28;20127;-62
2021/11/18 06:23:48;;;;;;;20.17;4.60;;;16.20;85.20;;;;;;4177471;28;20041;-62
2021/11/18 06:26:13;;;;;;;14.73;3.67;;;16.10;85.60;;;;;;4176866;28;20045;-62
2021/11/18 06:28:38;;;;;;;17.65;4.32;;;16.10;85.70;;;;;;4174820;28;20056;-61
2021/11/18 06:31:05;;;;;;;14.57;3.80;;;16.10;85.70;;;;;;4161496;28;20050;-61
2021/11/18 06:33:31;;;;;;;11.40;3.95;;;16.10;85.50;;;;;;4175631;28;20520;-61
2021/11/18 06:35:53;;;;;;;16.55;3.83;;;16.20;85.80;;;;;;4179724;28;20408;-63
2021/11/18 06:38:28;;;;;;;23.88;4.60;;;16.10;85.80;;;;;;4175298;28;20072;-63
2021/11/18 06:40:51;;;;;;;18.05;4.75;;;16.20;86.00;;;;;;4175514;28;20040;-63
2021/11/18 06:43:16;;;;;;;15.48;4.25;;;16.30;85.50;;;;;;4182877;28;20103;-63
2021/11/18 06:45:45;;;;;;;19.77;4.32;;;16.30;86.00;;;;;;4187045;28;20056;-62
2021/11/18 06:48:10;;;;;;;13.20;3.72;;;16.30;85.80;;;;;;4174397;28;20055;-62
2021/11/18 06:50:35;;;;;;;14.07;3.90;;;16.30;84.80;;;;;;4175089;28;20492;-62
2021/11/18 06:53:02;;;;;;;18.58;4.70;;;16.30;84.70;;;;;;4185625;28;20046;-63
2021/11/18 06:55:24;;;;;;;20.40;4.30;;;16.30;84.90;;;;;;4173266;28;20139;-63
2021/11/18 06:57:49;;;;;;;19.73;3.63;;;16.20;84.90;;;;;;4176626;28;20118;-63
2021/11/18 07:00:14;;;;;;;20.58;3.65;;;16.20;85.10;;;;;;4183070;28;20041;-63
2021/11/18 07:02:41;;;;;;;14.05;3.55;;;16.10;85.10;;;;;;4173278;28;25184;-62
2021/11/18 07:05:03;;;;;;;15.82;4.45;;;16.10;85.40;;;;;;4163383;28;20056;-63
2021/11/18 07:07:28;;;;;;;18.58;3.78;;;16.00;85.50;;;;;;4198020;28;20075;-62
2021/11/18 07:10:11;;;;;;;16.38;3.50;;;16.00;85.60;;;;;;4183429;28;20064;-62
2021/11/18 07:12:44;;;;;;;10.98;3.47;;;15.90;85.90;;;;;;4174876;28;20539;-62
2021/11/18 07:15:08;;;;;;;19.23;5.28;;;15.90;86.10;;;;;;4174786;28;20069;-63
2021/11/18 07:17:30;;;;;;;17.55;4.30;;;15.90;86.40;;;;;;4182278;28;20052;-63
2021/11/18 07:19:52;;;;;;;14.43;3.88;;;15.90;86.30;;;;;;4174869;28;20048;-63
2021/11/18 07:22:17;;;;;;;19.67;4.28;;;16.00;86.10;;;;;;4174827;28;20045;-63
2021/11/18 07:25:01;;;;;;;15.93;3.88;;;16.00;85.80;;;;;;4174602;28;20044;-62
2021/11/18 07:27:25;;;;;;;20.83;3.92;;;16.10;85.70;;;;;;4175044;28;20066;-61
2021/11/18 07:29:49;;;;;;;20.80;4.57;;;16.00;85.40;;;;;;4175162;28;20057;-62
2021/11/18 07:32:11;;;;;;;12.38;3.95;;;16.10;85.40;;;;;;4175594;28;20112;-61
2021/11/18 07:34:33;;;;;;;18.05;4.30;;;16.00;85.20;;;;;;4174875;28;20052;-61
2021/11/18 07:37:07;;;;;;;19.67;4.43;;;16.00;85.20;;;;;;4188776;28;20044;-61
2021/11/18 07:39:29;;;;;;;16.35;3.75;;;16.00;85.30;;;;;;4190962;28;20048;-63
2021/11/18 07:41:54;;;;;;;17.55;4.80;;;16.00;85.30;;;;;;4169467;28;20053;-63
2021/11/18 07:44:35;;;;;;;12.63;3.88;;;16.00;85.40;;;;;;4175957;28;20045;-63
2021/11/18 07:47:12;;;;;;;20.58;4.60;;;15.90;85.50;;;;;;4175606;28;20190;-63
2021/11/18 07:49:34;;;;;;;15.27;3.45;;;16.00;85.60;;;;;;4178318;28;20045;-63
2021/11/18 07:51:57;;;;;;;16.63;3.33;;;16.00;85.50;;;;;;4179799;28;20052;-62
2021/11/18 07:54:21;;;;;;;14.35;3.45;;;16.00;85.30;;;;;;4188533;28;20563;-62
2021/11/18 07:56:44;;;;;;;23.88;4.25;;;16.00;85.20;;;;;;4184848;28;20495;-67
2021/11/18 07:59:09;;;;;;;15.65;3.78;;;16.00;85.20;;;;;;4171921;28;20037;-60
2021/11/18 08:01:32;;;;;;;14.98;4.25;;;16.00;85.00;;;;;;4170477;28;20055;-59
2021/11/18 08:03:54;;;;;;;18.02;3.95;;;16.00;84.90;;;;;;4190873;28;20048;-61
2021/11/18 08:06:45;;;;;;;13.70;3.95;;;16.00;84.60;;;;;;4192286;28;20058;-62
2021/11/18 08:09:11;;;;;;;18.33;4.88;;;16.10;84.60;;;;;;4190826;28;20511;-60
2021/11/18 08:11:42;;;;;;;12.70;3.53;;;16.10;85.00;;;;;;4187093;28;20041;-60
2021/11/18 08:14:07;;;;;;;17.80;3.67;;;16.10;85.20;;;;;;4187977;28;20083;-60
2021/11/18 08:16:30;;;;;;;20.20;3.88;;;16.20;85.00;;;;;;4174501;28;20150;-60
2021/11/18 08:18:54;;;;;;;20.05;4.07;;;16.30;84.60;;;;;;4175771;28;20500;-61
2021/11/18 08:21:17;;;;;;;13.07;4.13;;;16.30;84.10;;;;;;4175752;28;20040;-60
2021/11/18 08:23:40;;;;;;;15.43;3.95;;;16.40;83.70;;;;;;4188410;28;20132;-60
2021/11/18 08:26:04;;;;;;;23.75;3.65;;;16.40;83.50;;;;;;4188509;28;20237;-59
2021/11/18 08:28:26;;;;;;;17.00;4.25;;;16.40;83.50;;;;;;4173663;28;20041;-60
2021/11/18 08:30:50;;;;;;;13.48;3.13;;;16.40;83.40;;;;;;4173498;28;20060;-60
2021/11/18 08:33:12;;;;;;;20.48;3.95;;;16.40;84.30;;;;;;4173948;28;20068;-60
2021/11/18 08:35:36;;;;;;;15.90;3.17;;;16.40;83.40;;;;;;4173712;28;20500;-60
2021/11/18 08:38:01;;;;;;;14.13;3.72;;;16.30;83.60;;;;;;4173842;28;20045;-60
2021/11/18 08:40:22;;;;;;;17.13;4.53;;;16.30;83.60;;;;;;4183618;28;20057;-60
2021/11/18 08:42:46;;;;;;;12.63;4.30;;;16.30;83.60;;;;;;4181938;28;20458;-59
2021/11/18 08:45:11;;;;;;;13.52;4.13;;;16.30;83.70;;;;;;4174116;28;20512;-60
2021/11/18 08:47:34;;;;;;;14.18;3.83;;;16.20;83.80;;;;;;4175131;28;20065;-60
2021/11/18 08:49:59;;;;;;;13.25;3.05;;;16.20;84.10;;;;;;4177810;28;20123;-60
2021/11/18 08:52:26;;;;;;;15.15;4.00;;;16.20;84.00;;;;;;4190773;28;20056;-61
2021/11/18 08:54:54;;;;;;;15.38;3.35;;;16.30;83.70;;;;;;4176731;28;20550;-60
2021/11/18 08:57:17;;;;;;;22.65;5.50;;;16.30;83.60;;;;;;4173665;28;20049;-60
2021/11/18 09:00:12;;;;;;;20.70;4.32;;;16.30;83.40;;;;;;4171273;28;20049;-60
2021/11/18 09:02:49;;;;;;;15.93;4.40;;;16.30;83.20;;;;;;4149759;28;20049;-59
2021/11/18 09:05:11;;;;;;;18.27;3.58;;;16.30;83.10;;;;;;4177291;28;20041;-59
2021/11/18 09:07:34;;;;;;;13.50;4.05;;;16.40;83.10;;;;;;4175423;28;20114;-59
2021/11/18 09:09:56;;;;;;;15.63;3.95;;;16.40;83.30;;;;;;4174615;28;20056;-59
2021/11/18 09:12:21;;;;;;;16.25;3.90;;;16.40;83.00;;;;;;4172189;28;20068;-59
2021/11/18 09:14:43;;;;;;;12.27;3.38;;;16.50;82.60;;;;;;4174087;28;20139;-59
2021/11/18 09:17:08;;;;;;;11.55;3.72;;;16.60;82.30;;;;;;4173701;28;20488;-59
2021/11/18 09:19:37;;;;;;;14.45;3.70;;;16.60;81.90;;;;;;4173265;28;20523;-60
2021/11/18 09:22:06;;;;;;;15.05;3.70;;;16.60;81.80;;;;;;4173825;28;20128;-59
2021/11/18 09:24:31;;;;;;;13.63;3.45;;;16.60;81.70;;;;;;4173386;28;20055;-59
2021/11/18 09:26:58;;;;;;;17.77;3.55;;;16.60;81.90;;;;;;4172977;28;20492;-60
2021/11/18 09:29:21;;;;;;;17.65;4.13;;;16.60;81.90;;;;;;4181021;28;20700;-59
2021/11/18 09:32:01;;;;;;;10.55;2.92;;;16.50;82.10;;;;;;4190002;28;20503;-60
2021/11/18 09:34:25;;;;;;;16.40;3.72;;;16.50;82.30;;;;;;4191403;28;20114;-59
2021/11/18 09:36:49;;;;;;;12.23;3.70;;;16.40;82.30;;;;;;4191425;28;20052;-60
2021/11/18 09:39:12;;;;;;;10.40;2.75;;;16.40;82.40;;;;;;4190390;28;20076;-61
2021/11/18 09:41:52;;;;;;;14.43;2.97;;;16.40;82.70;;;;;;4193122;28;20499;-60
2021/11/18 09:44:54;;;;;;;18.95;4.10;;;16.30;83.00;;;;;;4190889;28;20143;-60
2021/11/18 09:48:16;;;;;;;10.57;3.38;;;16.30;83.10;;;;;;4174406;28;20057;-59
2021/11/18 09:50:49;;;;;;;12.85;3.53;;;16.30;83.40;;;;;;4174466;28;20722;-60
2021/11/18 09:53:23;;;;;;;12.48;3.15;;;16.30;83.70;;;;;;4176425;28;20139;-59
2021/11/18 09:55:57;;;;;;;14.48;3.40;;;16.30;83.50;;;;;;4176188;28;20526;-60
2021/11/18 09:58:47;;;;;;;16.83;3.85;;;16.40;83.50;;;;;;4176284;28;20505;-59
2021/11/18 10:01:26;;;;;;;13.93;3.15;;;16.50;82.80;;;;;;4176472;28;20420;-59
2021/11/18 10:04:01;;;;;;;21.27;3.90;;;16.70;82.20;;;;;;4177879;28;20045;-60
2021/11/18 10:06:27;;;;;;;14.25;3.75;;;16.80;82.40;;;;;;4176504;28;20423;-58
2021/11/18 10:09:08;;;;;;;17.40;3.35;;;16.80;81.20;;;;;;4190937;28;20049;-58
2021/11/18 10:11:45;;;;;;;14.35;3.78;;;16.80;80.70;;;;;;4190590;28;20048;-59
2021/11/18 10:14:47;;;;;;;14.05;3.10;;;16.80;80.90;;;;;;4176625;28;20053;-59
2021/11/18 10:17:18;;;;;;;13.48;4.20;;;16.80;80.90;;;;;;4188331;28;20052;-61
2021/11/18 10:19:45;;;;;;;16.50;3.13;;;16.70;81.10;;;;;;4187755;28;20044;-59
2021/11/18 10:22:11;;;;;;;10.15;2.28;;;16.70;81.10;;;;;;4177998;28;20118;-61
2021/11/18 10:24:38;;;;;;;17.15;3.28;;;16.70;81.30;;;;;;4188278;28;20454;-61
2021/11/18 10:27:09;;;;;;;16.17;2.83;;;16.60;81.40;;;;;;4194687;28;20048;-61
2021/11/18 10:29:34;;;;;;;12.52;2.92;;;16.60;81.60;;;;;;4189861;28;20068;-61
2021/11/18 10:32:00;;;;;;;22.15;3.67;;;16.50;81.80;;;;;;4176530;28;20076;-61
2021/11/18 10:34:27;;;;;;;13.00;3.83;;;16.50;81.90;;;;;;4178030;28;20452;-61
2021/11/18 10:37:12;;;;;;;8.52;1.95;;;16.40;82.10;;;;;;4188713;28;20098;-61
2021/11/18 10:39:42;;;;;;;11.18;3.03;;;16.40;82.40;;;;;;4177300;28;20119;-60
2021/11/18 10:42:09;;;;;;;17.83;3.20;;;16.30;83.30;;;;;;4186024;28;20052;-61
2021/11/18 10:44:46;;;;;;;22.70;4.18;;;16.30;82.60;;;;;;4193895;28;20290;-60
2021/11/18 10:47:15;;;;;;;16.63;3.50;;;16.30;82.60;;;;;;4193509;28;20051;-60
2021/11/18 10:49:43;;;;;;;18.23;3.60;;;16.20;82.80;;;;;;4192556;28;20125;-59
2021/11/18 10:52:18;;;;;;;15.15;3.28;;;16.20;83.00;;;;;;4191300;28;20051;-60
2021/11/18 10:54:45;;;;;;;22.40;4.53;;;16.20;83.20;;;;;;4178559;28;20079;-59
2021/11/18 10:57:14;;;;;;;17.00;3.97;;;16.10;83.90;;;;;;4177747;28;20496;-59
2021/11/18 10:59:40;;;;;;;18.85;3.45;;;16.00;83.50;;;;;;4176477;28;20349;-59
2021/11/18 11:02:13;;;;;;;15.07;3.05;;;16.10;83.80;;;;;;4175436;28;20187;-60
2021/11/18 11:04:39;;;;;;;15.45;3.35;;;16.10;84.30;;;;;;4184288;28;20403;-59
2021/11/18 11:07:01;;;;;;;23.55;4.70;;;16.20;84.00;;;;;;4193002;28;20056;-60
2021/11/18 11:09:31;;;;;;;12.52;3.35;;;16.30;83.30;;;;;;4191727;28;20476;-60
2021/11/18 11:12:02;;;;;;;11.18;3.30;;;16.40;82.70;;;;;;4193331;28;20450;-60
2021/11/18 11:14:42;;;;;;;19.63;4.18;;;16.50;82.10;;;;;;4192896;28;20052;-60
2021/11/18 11:17:25;;;;;;;12.98;2.95;;;16.60;81.90;;;;;;4192990;28;20040;-60
2021/11/18 11:20:09;;;;;;;13.93;3.38;;;16.60;81.60;;;;;;4190547;28;20506;-60
2021/11/18 11:22:37;;;;;;;17.33;3.50;;;16.70;81.40;;;;;;4190961;28;20040;-60
2021/11/18 11:25:25;;;;;;;16.17;3.90;;;16.60;81.40;;;;;;4176490;28;20115;-59
2021/11/18 11:28:11;;;;;;;16.20;3.65;;;16.60;81.20;;;;;;4175896;28;20519;-60
2021/11/18 11:30:40;;;;;;;18.25;3.10;;;16.60;81.30;;;;;;4176101;28;20049;-59
2021/11/18 11:33:09;;;;;;;15.40;3.70;;;16.60;81.50;;;;;;4185522;28;20048;-59
2021/11/18 11:35:39;;;;;;;15.07;4.68;;;16.50;81.50;;;;;;4192772;28;20080;-59
2021/11/18 11:38:34;;;;;;;14.80;3.22;;;16.50;81.90;;;;;;4192319;28;20055;-59
2021/11/18 11:41:12;;;;;;;10.82;2.40;;;16.50;81.80;;;;;;4186188;28;20476;-60
2021/11/18 11:43:46;;;;;;;16.50;3.40;;;16.60;81.50;;;;;;4183803;28;20585;-60
2021/11/18 11:46:36;;;;;;;12.48;3.00;;;16.80;80.90;;;;;;4179950;28;20460;-59
2021/11/18 11:49:07;;;;;;;13.43;3.88;;;16.80;80.40;;;;;;4193117;28;20105;-60
2021/11/18 11:51:49;;;;;;;12.15;2.80;;;16.90;80.20;;;;;;4190598;28;20354;-60
2021/11/18 11:54:55;;;;;;;19.67;3.78;;;16.90;80.10;;;;;;4187553;28;20565;-61
2021/11/18 11:57:27;;;;;;;24.17;3.47;;;16.90;80.10;;;;;;4122952;28;20215;-60
2021/11/18 12:00:04;;;;;;;16.50;3.50;;;16.80;80.10;;;;;;4185082;28;20068;-61
2021/11/18 12:02:37;;;;;;;19.92;3.78;;;16.80;80.30;;;;;;4176416;28;20056;-60
2021/11/18 12:05:05;;;;;;;16.95;3.17;;;16.70;80.60;;;;;;4175042;28;20057;-61
2021/11/18 12:07:34;;;;;;;18.13;3.13;;;16.70;80.70;;;;;;4175108;28;20045;-60
2021/11/18 12:10:03;;;;;;;15.27;3.20;;;16.60;81.00;;;;;;4175965;28;20053;-60
2021/11/18 12:12:32;;;;;;;19.23;3.03;;;16.60;81.20;;;;;;4177817;28;20053;-60
2021/11/18 12:14:55;;;;;;;19.27;3.47;;;16.60;81.30;;;;;;4175547;28;20041;-60
2021/11/18 12:17:22;;;;;;;22.23;4.20;;;16.60;81.20;;;;;;4175570;28;20045;-60
2021/11/18 12:19:48;;;;;;;16.38;3.47;;;16.60;81.20;;;;;;4175487;28;20071;-60
2021/11/18 12:22:32;;;;;;;12.60;2.38;;;16.60;81.40;;;;;;4175757;28;20080;-60
2021/11/18 12:25:06;;;;;;;19.17;3.63;;;16.60;81.50;;;;;;4175890;28;20406;-61
2021/11/18 12:27:31;;;;;;;15.23;4.05;;;16.50;81.50;;;;;;4175814;28;20049;-61
2021/11/18 12:30:14;;;;;;;10.68;2.53;;;16.50;82.00;;;;;;4175590;28;20052;-61
2021/11/18 12:32:38;;;;;;;13.82;3.17;;;16.60;81.80;;;;;;4179286;28;20066;-61
2021/11/18 12:35:13;;;;;;;11.68;3.67;;;16.60;81.40;;;;;;4192216;28;20036;-66
2021/11/18 12:37:55;;;;;;;12.60;2.92;;;16.70;81.00;;;;;;4191502;28;20123;-61
2021/11/18 12:40:41;;;;;;;22.10;3.70;;;16.80;80.60;;;;;;4192186;28;20052;-61